Time;durP1;ratioP1;P1;durP2;ratioP2;P2;SDS_P1;SDS_P2;PMS_P1;PMS_P2;Temp;Humidity;BMP_temperature;BMP_pressure;BME280_temperature;BME280_humidity;BME280_pressure;Samples;Min_cycle;Max_cycle;Signal;HPM_P1;HPM_P2
2021/06/27 00:01:44;;;;;;;8.20;7.40;;;;;;;15.88;97.42;95920.66;4992124;28;20414;-76
2021/06/27 00:04:14;;;;;;;8.52;7.63;;;;;;;15.88;98.71;95923.28;4990733;28;20457;-75
2021/06/27 00:06:40;;;;;;;10.23;7.70;;;;;;;15.90;98.85;95923.13;4990301;28;20840;-75
2021/06/27 00:09:06;;;;;;;10.52;9.52;;;;;;;15.95;98.72;95921.00;4992064;28;20415;-75
2021/06/27 00:11:32;;;;;;;10.98;7.15;;;;;;;16.23;92.61;95922.16;4990679;28;20429;-75
2021/06/27 00:13:58;;;;;;;7.55;6.43;;;;;;;16.06;91.01;95925.34;4991940;28;20419;-75
2021/06/27 00:16:27;;;;;;;7.38;5.00;;;;;;;15.81;91.24;95922.09;4991592;28;20430;-75
2021/06/27 00:18:54;;;;;;;7.32;5.65;;;;;;;15.83;92.29;95922.81;4997668;28;20450;-75
2021/06/27 00:21:20;;;;;;;8.55;7.55;;;;;;;15.89;94.13;95926.72;4996578;28;20919;-76
2021/06/27 00:23:48;;;;;;;11.07;8.57;;;;;;;15.65;96.64;95917.31;4992163;28;20422;-75
2021/06/27 00:26:16;;;;;;;11.40;9.03;;;;;;;15.37;100.00;95920.44;4991595;28;20418;-76
2021/06/27 00:28:42;;;;;;;11.25;9.23;;;;;;;15.33;100.00;95919.03;5006891;28;20442;-76
2021/06/27 00:31:10;;;;;;;8.57;7.72;;;;;;;15.44;98.32;95913.78;4989827;28;21470;-75
2021/06/27 00:33:36;;;;;;;11.95;7.13;;;;;;;15.50;95.65;95926.34;4991653;28;20828;-76
2021/06/27 00:36:04;;;;;;;11.95;7.25;;;;;;;15.37;96.21;95912.59;4991313;28;20668;-75
2021/06/27 00:38:29;;;;;;;9.65;7.82;;;;;;;15.19;99.56;95915.72;4990318;28;20436;-75
2021/06/27 00:40:55;;;;;;;9.10;8.20;;;;;;;15.16;100.00;95915.94;4991616;28;20414;-75
2021/06/27 00:43:21;;;;;;;9.10;8.25;;;;;;;15.18;100.00;95916.66;4991505;28;20464;-76
2021/06/27 00:45:47;;;;;;;9.27;8.32;;;;;;;15.22;100.00;95920.69;4989946;28;20465;-75
2021/06/27 00:48:12;;;;;;;9.65;8.43;;;;;;;15.30;100.00;95927.91;4990157;28;20426;-75
2021/06/27 00:50:40;;;;;;;10.17;7.93;;;;;;;15.27;100.00;95922.09;4990073;28;20426;-75
2021/06/27 00:53:07;;;;;;;9.83;8.83;;;;;;;15.31;100.00;95926.13;4990285;28;20524;-75
2021/06/27 00:55:33;;;;;;;8.90;7.85;;;;;;;15.37;98.02;95912.59;4989883;28;20457;-75
2021/06/27 00:57:59;;;;;;;11.43;7.97;;;;;;;15.30;99.34;95920.09;4991390;28;20840;-75
2021/06/27 01:00:27;;;;;;;8.45;7.47;;;;;;;15.26;99.31;95921.28;4990906;28;20501;-75
2021/06/27 01:02:53;;;;;;;8.70;7.80;;;;;;;15.38;96.72;95924.69;4989394;28;20422;-75
2021/06/27 01:05:21;;;;;;;10.93;8.93;;;;;;;15.28;99.48;95927.22;4991002;28;20908;-75
2021/06/27 01:07:46;;;;;;;9.70;8.48;;;;;;;15.22;100.00;95925.91;4990014;28;20450;-75
2021/06/27 01:10:14;;;;;;;8.73;7.93;;;;;;;15.35;98.99;95923.19;4990134;28;21061;-75
2021/06/27 01:12:40;;;;;;;11.02;7.53;;;;;;;15.33;96.02;95917.22;4991192;28;20454;-75
2021/06/27 01:15:07;;;;;;;8.18;7.38;;;;;;;15.16;96.39;95921.16;4990923;28;20987;-75
2021/06/27 01:17:32;;;;;;;7.80;6.53;;;;;;;15.38;91.13;95922.91;4990925;28;20438;-76
2021/06/27 01:19:58;;;;;;;10.17;7.53;;;;;;;15.15;93.94;95921.28;4991111;28;20414;-75
2021/06/27 01:22:25;;;;;;;8.97;7.10;;;;;;;14.93;96.96;95930.78;4991150;28;20469;-75
2021/06/27 01:24:50;;;;;;;10.83;8.20;;;;;;;14.83;98.78;95934.22;4991337;28;20983;-76
2021/06/27 01:27:16;;;;;;;9.00;8.10;;;;;;;14.83;99.98;95931.63;4990715;28;20413;-76
2021/06/27 01:29:42;;;;;;;10.85;8.30;;;;;;;14.81;99.93;95936.97;4989760;28;20465;-75
2021/06/27 01:32:10;;;;;;;9.40;8.50;;;;;;;14.94;100.00;95932.47;4990618;28;20430;-75
2021/06/27 01:34:36;;;;;;;10.68;8.32;;;;;;;14.97;100.00;95934.00;4990967;28;20924;-75
2021/06/27 01:37:02;;;;;;;8.80;8.07;;;;;;;14.97;100.00;95937.41;4990620;28;20433;-75
2021/06/27 01:39:29;;;;;;;9.57;8.15;;;;;;;14.94;100.00;95934.22;4990993;28;20916;-75
2021/06/27 01:41:54;;;;;;;8.80;7.75;;;;;;;14.97;100.00;95926.16;4991003;28;20414;-75
2021/06/27 01:44:19;;;;;;;15.93;8.27;;;;;;;15.28;97.86;95922.00;4990933;28;20414;-75
2021/06/27 01:46:45;;;;;;;8.00;6.77;;;;;;;15.21;95.34;95921.66;4990392;28;20781;-75
2021/06/27 01:49:11;;;;;;;8.15;7.03;;;;;;;14.85;96.17;95927.13;4990815;28;20414;-75
2021/06/27 01:51:37;;;;;;;7.80;6.80;;;;;;;14.67;97.68;95926.75;4989445;28;20422;-76
2021/06/27 01:54:02;;;;;;;9.03;7.50;;;;;;;14.65;96.81;95921.66;4989479;28;20429;-75
2021/06/27 01:56:29;;;;;;;12.77;7.97;;;;;;;14.65;96.09;95926.06;4990595;28;20445;-75
2021/06/27 01:58:55;;;;;;;10.88;7.80;;;;;;;14.63;95.92;95931.38;4989466;28;20430;-75
2021/06/27 02:01:27;;;;;;;12.97;7.53;;;;;;;14.56;98.25;95932.78;4990792;28;20434;-75
2021/06/27 02:03:54;;;;;;;7.72;7.00;;;;;;;14.55;99.17;95938.13;4991023;28;20837;-75
2021/06/27 02:06:21;;;;;;;8.60;7.70;;;;;;;14.60;100.00;95934.22;4989160;28;20426;-75
2021/06/27 02:08:47;;;;;;;8.63;7.72;;;;;;;14.65;100.00;95939.91;4991080;28;20426;-75
2021/06/27 02:11:15;;;;;;;9.20;8.27;;;;;;;14.76;100.00;95944.31;4989591;28;20784;-75
2021/06/27 02:13:43;;;;;;;9.52;8.25;;;;;;;14.85;100.00;95929.72;4993057;28;20418;-75
2021/06/27 02:16:09;;;;;;;8.80;8.00;;;;;;;14.85;100.00;95917.53;4993762;28;20438;-75
2021/06/27 02:18:36;;;;;;;9.82;7.88;;;;;;;14.91;100.00;95911.00;4994133;28;20525;-75
2021/06/27 02:21:04;;;;;;;9.27;7.97;;;;;;;15.15;97.53;95906.47;4994131;28;20414;-75
2021/06/27 02:23:30;;;;;;;11.43;7.75;;;;;;;14.95;96.52;95902.81;4994568;28;20434;-76
2021/06/27 02:25:56;;;;;;;8.35;7.32;;;;;;;14.63;97.08;95902.69;4993708;28;20844;-75
2021/06/27 02:28:22;;;;;;;10.77;7.00;;;;;;;14.46;97.15;95903.13;4992732;28;20426;-76
2021/06/27 02:30:50;;;;;;;8.80;6.78;;;;;;;14.46;96.68;95905.72;4992576;28;20926;-75
2021/06/27 02:33:15;;;;;;;7.18;6.50;;;;;;;14.50;94.86;95892.41;4993931;28;20465;-76
2021/06/27 02:35:41;;;;;;;6.03;5.43;;;;;;;14.55;95.11;95897.25;4993495;28;20433;-76
2021/06/27 02:38:06;;;;;;;7.43;5.90;;;;;;;14.47;97.66;95897.81;4993798;28;20430;-76
2021/06/27 02:40:32;;;;;;;6.67;5.00;;;;;;;14.49;96.67;95900.28;4993812;28;20498;-75
2021/06/27 02:42:58;;;;;;;5.13;4.63;;;;;;;14.27;99.79;95890.66;4993669;28;20434;-75
2021/06/27 02:45:23;;;;;;;5.47;4.90;;;;;;;14.21;99.84;95889.34;4991937;28;20481;-75
2021/06/27 02:47:50;;;;;;;6.23;5.60;;;;;;;14.16;100.00;95883.66;4992345;28;20431;-75
2021/06/27 02:50:16;;;;;;;6.68;5.60;;;;;;;14.22;100.00;95875.38;4993488;28;20832;-75
2021/06/27 02:52:42;;;;;;;11.77;8.50;;;;;;;14.77;97.80;95867.75;4992167;28;20434;-75
2021/06/27 02:55:10;;;;;;;11.70;8.30;;;;;;;14.69;97.17;95857.91;4991921;28;20438;-75
2021/06/27 02:57:36;;;;;;;12.90;9.57;;;;;;;14.35;99.74;95862.28;4993330;28;20812;-75
2021/06/27 03:00:01;;;;;;;11.17;9.10;;;;;;;14.24;100.00;95859.66;4993443;28;20406;-75
2021/06/27 03:02:28;;;;;;;10.33;8.90;;;;;;;14.27;100.00;95855.00;4993279;28;20420;-75
2021/06/27 03:04:54;;;;;;;9.23;8.32;;;;;;;14.22;100.00;95858.94;4993190;28;20423;-75
2021/06/27 03:07:20;;;;;;;9.40;8.55;;;;;;;14.24;100.00;95855.28;4993025;28;20426;-75
2021/06/27 03:09:45;;;;;;;12.23;8.93;;;;;;;14.20;100.00;95853.84;4993125;28;20433;-75
2021/06/27 03:12:12;;;;;;;10.00;7.60;;;;;;;14.25;100.00;95843.91;4993087;28;20434;-75
2021/06/27 03:14:37;;;;;;;9.80;8.15;;;;;;;14.33;100.00;95842.47;4991806;28;20426;-75
2021/06/27 03:17:03;;;;;;;8.43;7.63;;;;;;;14.37;100.00;95843.91;4992644;28;20920;-75
2021/06/27 03:19:29;;;;;;;9.80;7.80;;;;;;;14.41;100.00;95846.16;4996400;28;20490;-75
2021/06/27 03:21:55;;;;;;;8.57;6.80;;;;;;;14.54;99.31;95835.66;4996897;28;20437;-76
2021/06/27 03:24:21;;;;;;;8.55;7.53;;;;;;;14.50;98.61;95840.28;4991907;28;20525;-76
2021/06/27 03:26:46;;;;;;;11.48;7.75;;;;;;;14.36;100.00;95830.06;4992849;28;20490;-76
2021/06/27 03:29:12;;;;;;;9.53;7.37;;;;;;;14.44;99.74;95816.44;4992887;28;20928;-75
2021/06/27 03:31:37;;;;;;;8.00;7.20;;;;;;;14.49;99.22;95807.31;4991389;28;20481;-76
2021/06/27 03:34:03;;;;;;;9.00;7.00;;;;;;;14.49;99.20;95806.47;4992740;28;20465;-76
2021/06/27 03:36:28;;;;;;;8.82;7.60;;;;;;;14.39;99.79;95808.97;4992305;28;20410;-75
2021/06/27 03:39:04;;;;;;;8.80;7.95;;;;;;;14.25;100.00;95811.81;4991356;28;20423;-75
2021/06/27 03:41:34;;;;;;;10.57;8.40;;;;;;;14.23;100.00;95821.50;4992634;28;20507;-75
2021/06/27 03:43:59;;;;;;;10.82;9.38;;;;;;;14.28;100.00;95830.63;4991281;28;20430;-75
2021/06/27 03:46:26;;;;;;;8.87;8.07;;;;;;;14.33;100.00;95842.47;4991983;28;20442;-76
2021/06/27 03:48:52;;;;;;;9.75;8.73;;;;;;;14.37;100.00;95847.34;4992476;28;20753;-75
2021/06/27 03:51:17;;;;;;;8.97;8.07;;;;;;;14.40;100.00;95848.88;4992265;28;20430;-75
2021/06/27 03:53:42;;;;;;;10.30;8.88;;;;;;;14.43;100.00;95852.09;4992196;28;20932;-75
2021/06/27 03:56:09;;;;;;;9.50;8.50;;;;;;;14.43;100.00;95856.47;4992008;28;20776;-76
2021/06/27 03:58:35;;;;;;;9.17;7.90;;;;;;;14.52;100.00;95863.59;4992317;28;20974;-75
2021/06/27 04:01:00;;;;;;;8.97;8.07;;;;;;;14.60;100.00;95878.66;4990949;28;20429;-76
2021/06/27 04:03:25;;;;;;;10.77;8.43;;;;;;;14.55;100.00;95876.41;4992096;28;20454;-75
2021/06/27 04:05:51;;;;;;;8.00;7.30;;;;;;;14.60;100.00;95871.66;4990565;28;20426;-75
2021/06/27 04:08:16;;;;;;;11.47;7.43;;;;;;;14.68;100.00;95863.22;4992041;28;20481;-76
2021/06/27 04:10:42;;;;;;;9.60;8.40;;;;;;;14.84;100.00;95858.50;4992085;28;20418;-76
2021/06/27 04:13:08;;;;;;;9.90;8.23;;;;;;;14.91;100.00;95871.91;4991978;28;20430;-76
2021/06/27 04:15:34;;;;;;;8.77;7.80;;;;;;;15.08;100.00;95863.56;4990362;28;20578;-76
2021/06/27 04:17:59;;;;;;;10.30;7.95;;;;;;;15.02;100.00;95874.50;4992346;28;20934;-76
2021/06/27 04:20:25;;;;;;;13.45;8.25;;;;;;;14.91;100.00;95871.91;4991924;28;20777;-75
2021/06/27 04:22:50;;;;;;;8.97;8.07;;;;;;;14.75;100.00;95875.66;4991764;28;20856;-75
2021/06/27 04:25:16;;;;;;;9.73;8.73;;;;;;;14.72;100.00;95880.28;4990240;28;20419;-76
2021/06/27 04:27:41;;;;;;;10.70;8.20;;;;;;;14.73;100.00;95877.59;4991688;28;20421;-75
2021/06/27 04:30:09;;;;;;;9.93;8.60;;;;;;;14.59;100.00;95875.22;4991731;28;20522;-76
2021/06/27 04:32:35;;;;;;;11.50;8.40;;;;;;;14.59;100.00;95866.56;4990243;28;20939;-75
2021/06/27 04:35:01;;;;;;;11.87;9.70;;;;;;;14.86;100.00;95868.81;4991447;28;20415;-75
2021/06/27 04:37:26;;;;;;;8.50;7.60;;;;;;;14.96;100.00;95870.56;4990057;28;20939;-75
2021/06/27 04:39:51;;;;;;;8.73;7.93;;;;;;;14.82;100.00;95878.63;4991558;28;20897;-75
2021/06/27 04:42:17;;;;;;;8.43;7.37;;;;;;;14.70;100.00;95874.38;4991643;28;20530;-75
2021/06/27 04:44:43;;;;;;;9.13;8.20;;;;;;;14.71;100.00;95857.78;4991435;28;20836;-75
2021/06/27 04:47:09;;;;;;;11.38;8.75;;;;;;;15.16;100.00;95850.72;4991213;28;20445;-75
2021/06/27 04:49:35;;;;;;;10.73;8.40;;;;;;;15.17;100.00;95855.00;4991494;28;20935;-75
2021/06/27 04:52:00;;;;;;;10.32;8.68;;;;;;;14.98;100.00;95857.41;4989865;28;20430;-75
2021/06/27 04:54:26;;;;;;;10.82;9.30;;;;;;;14.80;100.00;95854.47;4990135;28;20941;-75
2021/06/27 04:56:51;;;;;;;10.57;9.47;;;;;;;14.68;100.00;95853.66;4991238;28;20472;-75
2021/06/27 04:59:17;;;;;;;14.53;9.77;;;;;;;14.57;100.00;95861.47;4991490;28;20797;-75
2021/06/27 05:01:42;;;;;;;14.32;8.85;;;;;;;14.62;100.00;95856.75;4991606;28;20443;-75
2021/06/27 05:04:09;;;;;;;10.03;8.90;;;;;;;14.76;100.00;95853.06;4991476;28;20840;-75
2021/06/27 05:06:34;;;;;;;10.23;8.20;;;;;;;14.96;100.00;95851.50;4991038;28;20502;-75
2021/06/27 05:08:59;;;;;;;18.30;8.80;;;;;;;14.95;100.00;95850.66;4991519;28;20796;-75
2021/06/27 05:11:25;;;;;;;9.93;8.37;;;;;;;15.04;100.00;95849.09;4991395;28;20465;-75
2021/06/27 05:13:50;;;;;;;10.00;8.82;;;;;;;15.17;100.00;95844.56;4991391;28;20418;-75
2021/06/27 05:16:16;;;;;;;10.30;8.20;;;;;;;15.21;100.00;95856.41;4991198;28;20421;-75
2021/06/27 05:18:41;;;;;;;11.40;7.87;;;;;;;15.20;100.00;95851.31;4990040;28;20489;-75
2021/06/27 05:21:08;;;;;;;11.50;8.38;;;;;;;15.19;100.00;95847.88;4991730;28;20422;-75
2021/06/27 05:23:33;;;;;;;8.77;7.97;;;;;;;15.29;100.00;95841.94;4991446;28;20422;-75
2021/06/27 05:25:59;;;;;;;9.07;7.77;;;;;;;15.42;100.00;95842.59;4990882;28;20422;-75
2021/06/27 05:28:25;;;;;;;8.50;7.60;;;;;;;15.52;100.00;95838.28;4989940;28;20434;-75
2021/06/27 05:30:51;;;;;;;11.60;8.43;;;;;;;15.55;100.00;95845.88;5006230;28;20939;-75
2021/06/27 05:33:16;;;;;;;11.27;8.60;;;;;;;15.61;100.00;95840.16;4991055;28;20497;-75
2021/06/27 05:35:41;;;;;;;8.83;8.03;;;;;;;15.42;100.00;95839.97;4990511;28;20911;-75
2021/06/27 05:38:08;;;;;;;9.80;8.70;;;;;;;15.53;100.00;95845.16;4991340;28;20453;-75
2021/06/27 05:40:34;;;;;;;10.23;8.82;;;;;;;15.61;100.00;95842.78;4991197;28;20430;-75
2021/06/27 05:42:59;;;;;;;11.95;8.77;;;;;;;15.59;100.00;95839.44;4991024;28;20484;-75
2021/06/27 05:45:25;;;;;;;10.07;8.80;;;;;;;15.53;100.00;95837.31;4990443;28;20947;-75
2021/06/27 05:47:50;;;;;;;9.73;8.38;;;;;;;15.70;100.00;95836.00;4992439;28;20425;-75
2021/06/27 05:50:16;;;;;;;9.40;8.60;;;;;;;15.88;100.00;95831.84;4993372;28;20521;-75
2021/06/27 05:52:41;;;;;;;9.47;8.50;;;;;;;16.14;100.00;95829.69;4994408;28;20865;-75
2021/06/27 05:55:09;;;;;;;10.50;8.97;;;;;;;16.30;98.47;95831.00;4994539;28;20494;-75
2021/06/27 05:57:34;;;;;;;9.48;8.52;;;;;;;16.34;97.29;95835.00;4994585;28;20416;-75
2021/06/27 06:00:00;;;;;;;10.03;8.90;;;;;;;16.26;97.44;95840.06;4994584;28;20799;-75
2021/06/27 06:02:25;;;;;;;9.97;9.07;;;;;;;16.33;98.24;95835.97;4993277;28;20418;-75
2021/06/27 06:04:50;;;;;;;11.13;8.40;;;;;;;16.55;98.05;95843.66;4994276;28;20506;-75
2021/06/27 06:07:16;;;;;;;8.83;7.93;;;;;;;16.68;96.90;95853.88;4994213;28;20419;-75
2021/06/27 06:09:41;;;;;;;11.63;8.20;;;;;;;16.79;95.81;95848.56;4993415;28;20425;-75
2021/06/27 06:12:09;;;;;;;8.68;7.78;;;;;;;17.13;94.71;95848.25;4994369;28;20437;-76
2021/06/27 06:14:34;;;;;;;7.65;6.95;;;;;;;17.47;94.46;95840.06;4994621;28;20414;-77
2021/06/27 06:16:59;;;;;;;9.03;7.33;;;;;;;17.79;92.73;95837.19;4994232;28;20437;-74
2021/06/27 06:19:25;;;;;;;8.55;7.75;;;;;;;18.05;92.52;95834.81;4994092;28;20912;-75
2021/06/27 06:21:51;;;;;;;8.13;7.30;;;;;;;18.34;88.88;95838.19;5002002;28;20433;-75
2021/06/27 06:24:17;;;;;;;7.55;6.75;;;;;;;18.57;88.65;95837.84;5001687;28;20513;-74
2021/06/27 06:26:43;;;;;;;8.63;7.72;;;;;;;18.66;86.82;95837.00;4999462;28;20466;-75
2021/06/27 06:29:10;;;;;;;7.43;6.67;;;;;;;18.69;87.87;95835.84;4995939;28;20899;-76
2021/06/27 06:31:35;;;;;;;7.55;6.53;;;;;;;18.48;83.37;95831.66;4994304;28;20473;-76
2021/06/27 06:34:01;;;;;;;8.10;6.83;;;;;;;18.42;84.50;95831.41;4994070;28;20454;-75
2021/06/27 06:36:27;;;;;;;7.10;6.40;;;;;;;18.42;84.22;95834.03;4993761;28;20736;-75
2021/06/27 06:38:52;;;;;;;8.15;6.93;;;;;;;18.51;85.03;95828.75;4994026;28;20425;-75
2021/06/27 06:41:18;;;;;;;7.10;5.90;;;;;;;18.57;84.39;95827.34;4993732;28;20509;-75
2021/06/27 06:43:44;;;;;;;6.85;6.18;;;;;;;18.74;81.34;95823.19;4993759;28;20509;-75
2021/06/27 06:46:11;;;;;;;9.52;6.00;;;;;;;18.83;80.42;95820.50;4993293;28;20494;-75
2021/06/27 06:48:36;;;;;;;6.20;5.45;;;;;;;18.97;80.41;95824.44;4993609;28;20446;-75
2021/06/27 06:51:02;;;;;;;6.10;5.53;;;;;;;19.44;78.68;95818.22;4993816;28;20481;-75
2021/06/27 06:53:27;;;;;;;6.70;5.77;;;;;;;19.88;75.67;95820.91;4992197;28;20466;-75
2021/06/27 06:55:56;;;;;;;6.90;5.33;;;;;;;20.01;74.62;95821.34;4993303;28;20469;-75
2021/06/27 06:58:23;;;;;;;6.20;5.10;;;;;;;19.91;74.63;95817.97;4993380;28;20414;-75
2021/06/27 07:00:49;;;;;;;7.20;5.00;;;;;;;20.06;74.43;95825.16;4993779;28;20784;-75
2021/06/27 07:03:16;;;;;;;7.93;5.03;;;;;;;19.89;74.08;95817.31;4992040;28;20455;-75
2021/06/27 07:05:41;;;;;;;5.80;5.20;;;;;;;19.96;74.70;95816.53;4993052;28;20419;-76
2021/06/27 07:08:07;;;;;;;6.22;5.15;;;;;;;20.16;73.51;95827.69;4993280;28;20415;-75
2021/06/27 07:10:32;;;;;;;5.67;5.13;;;;;;;20.25;72.39;95824.16;4993357;28;20473;-75
2021/06/27 07:12:57;;;;;;;6.17;4.90;;;;;;;20.25;73.21;95821.50;4993081;28;20804;-75
2021/06/27 07:15:23;;;;;;;5.30;4.80;;;;;;;20.23;74.54;95815.56;4992765;28;20419;-75
2021/06/27 07:17:49;;;;;;;5.70;5.10;;;;;;;20.58;77.11;95810.38;4991773;28;20770;-75
2021/06/27 07:20:16;;;;;;;8.48;4.97;;;;;;;21.09;73.14;95817.31;4993025;28;20437;-75
2021/06/27 07:22:41;;;;;;;8.30;5.03;;;;;;;21.12;71.27;95810.91;4992959;28;20422;-75
2021/06/27 07:25:09;;;;;;;4.88;4.30;;;;;;;21.50;70.92;95807.72;4992715;28;20418;-75
2021/06/27 07:27:35;;;;;;;5.50;4.88;;;;;;;21.89;69.59;95804.47;5007646;28;20509;-75
2021/06/27 07:30:00;;;;;;;6.28;4.93;;;;;;;21.93;69.65;95803.13;4992894;28;20989;-75
2021/06/27 07:32:26;;;;;;;9.65;5.15;;;;;;;21.79;69.45;95802.97;4992704;28;20505;-76
2021/06/27 07:34:52;;;;;;;6.03;5.00;;;;;;;21.68;70.70;95806.75;4991494;28;20426;-75
2021/06/27 07:37:18;;;;;;;6.82;4.55;;;;;;;22.01;69.39;95807.59;4992519;28;20414;-76
2021/06/27 07:39:44;;;;;;;5.70;4.60;;;;;;;22.00;69.45;95805.94;4991460;28;20509;-76
2021/06/27 07:42:09;;;;;;;4.63;4.20;;;;;;;22.19;68.28;95802.97;4991275;28;20505;-76
2021/06/27 07:44:35;;;;;;;5.83;4.37;;;;;;;22.15;69.61;95795.56;4992552;28;20410;-76
2021/06/27 07:47:00;;;;;;;5.45;4.18;;;;;;;22.42;67.98;95791.72;4990662;28;20856;-76
2021/06/27 07:49:25;;;;;;;5.07;4.57;;;;;;;22.28;66.93;95793.22;4991256;28;20429;-75
2021/06/27 07:51:51;;;;;;;4.23;3.83;;;;;;;22.64;66.52;95806.00;4992329;28;20453;-75
2021/06/27 07:54:18;;;;;;;6.57;4.10;;;;;;;22.89;67.90;95804.09;4992485;28;20427;-75
2021/06/27 07:56:43;;;;;;;4.05;3.65;;;;;;;23.34;62.36;95803.41;4991987;28;20433;-75
2021/06/27 07:59:09;;;;;;;4.20;3.80;;;;;;;22.98;64.91;95804.91;4991063;28;20454;-75
2021/06/27 08:01:34;;;;;;;4.07;3.67;;;;;;;23.23;63.75;95802.97;4990882;28;20422;-75
2021/06/27 08:04:00;;;;;;;5.00;3.80;;;;;;;23.11;64.56;95805.19;4992116;28;20422;-75
2021/06/27 08:06:26;;;;;;;4.27;3.77;;;;;;;23.48;64.05;95799.19;4990601;28;20439;-74
2021/06/27 08:08:51;;;;;;;4.10;3.70;;;;;;;23.40;63.16;95802.72;4992302;28;20414;-71
2021/06/27 08:11:18;;;;;;;8.90;4.00;;;;;;;23.53;62.87;95812.69;4991880;28;20785;-75
2021/06/27 08:13:43;;;;;;;5.43;3.42;;;;;;;23.58;62.75;95807.72;4992645;28;20442;-74
2021/06/27 08:16:09;;;;;;;3.83;3.33;;;;;;;24.13;59.04;95797.88;4991553;28;20438;-75
2021/06/27 08:18:34;;;;;;;3.77;3.30;;;;;;;24.57;56.74;95792.66;4992221;28;20441;-75
2021/06/27 08:20:59;;;;;;;3.10;2.70;;;;;;;24.87;56.23;95795.28;4992408;28;20465;-76
2021/06/27 08:23:25;;;;;;;4.93;2.80;;;;;;;25.02;55.40;95789.97;5022725;23;20466;-74
2021/06/27 08:25:50;;;;;;;4.10;3.17;;;;;;;25.31;58.28;95795.22;5031704;28;20419;-75
2021/06/27 08:28:17;;;;;;;3.83;3.43;;;;;;;25.24;nan;95796.97;5031441;28;20419;-76
2021/06/27 08:30:42;;;;;;;3.28;2.97;;;;;;;25.44;57.43;95796.38;5046407;28;20415;-75
2021/06/27 08:33:09;;;;;;;3.95;3.10;;;;;;;25.85;59.32;95795.81;5029911;28;20477;-76
2021/06/27 08:35:35;;;;;;;4.07;2.60;;;;;;;25.78;55.27;95793.06;5030978;28;20909;-76
2021/06/27 08:38:00;;;;;;;3.67;3.27;;;;;;;25.63;53.82;95793.13;5031084;28;20415;-75
2021/06/27 08:40:26;;;;;;;3.70;2.90;;;;;;;25.45;55.63;95788.25;5030887;28;20476;-75
2021/06/27 08:42:52;;;;;;;4.72;3.28;;;;;;;25.47;56.71;95780.91;5030878;28;20454;-75
2021/06/27 08:45:19;;;;;;;3.40;3.10;;;;;;;25.60;58.56;95782.88;5029276;28;20436;-75
2021/06/27 08:47:46;;;;;;;4.78;3.15;;;;;;;25.66;58.39;95776.84;5031015;28;20513;-75
2021/06/27 08:50:14;;;;;;;3.30;2.97;;;;;;;25.53;58.05;95782.00;5030861;28;20414;-74
2021/06/27 08:52:42;;;;;;;3.40;2.63;;;;;;;25.34;57.66;95778.97;5030626;28;20423;-74
2021/06/27 08:55:09;;;;;;;4.57;3.38;;;;;;;25.31;54.54;95773.22;5030557;28;20908;-74
2021/06/27 08:57:35;;;;;;;3.30;2.97;;;;;;;25.43;56.88;95765.56;5030590;28;20509;-76
2021/06/27 09:00:00;;;;;;;5.30;2.88;;;;;;;25.24;52.98;95767.81;5030626;28;20984;-76
2021/06/27 09:02:29;;;;;;;4.57;2.83;;;;;;;25.24;55.91;95778.44;5031318;28;20470;-77
2021/06/27 09:04:54;;;;;;;3.53;3.17;;;;;;;25.30;55.01;95771.56;5031287;28;20944;-77
2021/06/27 09:07:30;;;;;;;5.40;3.00;;;;;;;25.55;52.59;95770.19;5032045;28;20461;-77
2021/06/27 09:10:00;;;;;;;2.92;2.53;;;;;;;25.67;50.23;95775.00;5032963;28;20421;-77
2021/06/27 09:12:25;;;;;;;3.05;2.83;;;;;;;26.02;51.69;95774.09;5030950;28;20427;-77
2021/06/27 09:14:55;;;;;;;4.17;3.00;;;;;;;26.29;51.61;95775.13;5029506;28;21194;-76
2021/06/27 09:17:25;;;;;;;3.40;2.90;;;;;;;26.62;51.60;95777.19;5030472;28;20427;-76
2021/06/27 09:20:05;;;;;;;3.25;2.85;;;;;;;26.90;49.19;95779.78;5029394;28;20427;-74
2021/06/27 09:22:32;;;;;;;2.95;2.60;;;;;;;26.97;45.82;95779.81;5030087;28;20923;-75
2021/06/27 09:25:22;;;;;;;3.78;2.70;;;;;;;27.09;46.54;95783.53;5033255;28;20430;-75
2021/06/27 09:27:58;;;;;;;3.15;2.85;;;;;;;27.19;51.33;95780.53;5033315;28;20422;-75
2021/06/27 09:30:24;;;;;;;3.47;2.50;;;;;;;27.35;49.99;95787.34;5034781;28;20414;-75
2021/06/27 09:32:52;;;;;;;2.50;2.30;;;;;;;27.18;44.68;95786.84;5034603;28;20430;-75
2021/06/27 09:35:46;;;;;;;2.40;2.20;;;;;;;27.23;49.03;95779.94;5015623;28;20412;-75
2021/06/27 09:38:38;;;;;;;3.77;2.37;;;;;;;27.31;45.43;95789.56;5014742;28;20511;-74
2021/06/27 09:41:07;;;;;;;3.58;2.60;;;;;;;27.48;47.10;95782.06;5014731;28;20413;-75
2021/06/27 09:43:34;;;;;;;10.57;2.75;;;;;;;27.20;47.20;95783.00;5014437;28;20428;-75
2021/06/27 09:46:10;;;;;;;3.33;2.53;;;;;;;27.24;50.03;95781.56;5014463;28;20913;-75
2021/06/27 09:48:49;;;;;;;3.70;3.17;;;;;;;27.31;51.35;95775.47;5014607;28;20506;-75
2021/06/27 09:51:16;;;;;;;4.57;3.10;;;;;;;27.27;52.42;95775.03;5014556;28;20413;-75
2021/06/27 09:53:41;;;;;;;4.15;2.88;;;;;;;27.15;52.15;95780.13;5017399;28;20469;-75
2021/06/27 09:56:10;;;;;;;2.73;2.53;;;;;;;27.12;51.45;95788.50;5033882;28;20422;-73
2021/06/27 09:58:36;;;;;;;3.33;2.63;;;;;;;27.11;48.53;95786.88;5034204;28;20419;-75
2021/06/27 10:01:03;;;;;;;3.10;2.80;;;;;;;26.87;47.40;95779.34;5034075;28;20795;-75
2021/06/27 10:03:40;;;;;;;3.00;2.70;;;;;;;26.29;46.77;95769.81;5033942;28;20406;-75
2021/06/27 10:06:07;;;;;;;2.95;2.60;;;;;;;26.57;50.17;95774.31;5033716;28;20418;-75
2021/06/27 10:08:34;;;;;;;5.18;2.90;;;;;;;26.64;50.36;95775.16;5033907;28;20427;-74
2021/06/27 10:11:17;;;;;;;3.20;2.63;;;;;;;26.48;49.11;95772.81;5033816;28;20415;-74
2021/06/27 10:13:46;;;;;;;2.90;2.60;;;;;;;26.81;49.60;95772.16;5033677;28;20531;-75
2021/06/27 10:16:15;;;;;;;3.00;2.60;;;;;;;27.23;51.39;95764.00;5032242;28;20427;-75
2021/06/27 10:18:42;;;;;;;2.97;2.63;;;;;;;27.42;52.90;95762.41;5033791;28;20934;-74
2021/06/27 10:21:08;;;;;;;3.20;2.53;;;;;;;27.29;53.65;95765.00;5032343;28;20513;-75
2021/06/27 10:23:35;;;;;;;2.83;2.40;;;;;;;27.28;48.11;95771.34;5030770;28;20426;-75
2021/06/27 10:26:01;;;;;;;3.05;2.55;;;;;;;27.08;50.80;95776.59;5012265;28;20421;-74
2021/06/27 10:28:28;;;;;;;2.77;2.47;;;;;;;26.85;47.46;95771.59;5013815;28;20985;-75
2021/06/27 10:30:54;;;;;;;3.03;2.13;;;;;;;27.16;47.48;95771.13;5013620;28;20412;-74
2021/06/27 10:33:20;;;;;;;2.80;2.27;;;;;;;27.31;42.63;95778.13;5013104;28;20428;-77
2021/06/27 10:35:50;;;;;;;2.90;2.30;;;;;;;27.54;42.82;95767.94;5013353;28;20425;-75
2021/06/27 10:38:20;;;;;;;4.17;2.10;;;;;;;27.74;46.93;95768.81;5012366;28;20764;-75
2021/06/27 10:40:50;;;;;;;2.83;2.10;;;;;;;27.93;43.22;95767.19;5013588;28;20413;-75
2021/06/27 10:43:16;;;;;;;3.53;2.83;;;;;;;27.77;44.22;95756.94;5013531;28;20409;-75
2021/06/27 10:45:57;;;;;;;2.33;2.13;;;;;;;27.90;50.39;95759.63;5013279;28;20924;-75
2021/06/27 10:48:37;;;;;;;2.88;2.30;;;;;;;27.75;45.90;95756.34;5013458;28;20421;-75
2021/06/27 10:51:05;;;;;;;4.97;2.65;;;;;;;27.78;50.29;95755.13;5012085;28;20425;-74
2021/06/27 10:54:06;;;;;;;2.55;2.15;;;;;;;27.90;41.85;95750.81;5012894;28;20428;-75
2021/06/27 10:56:56;;;;;;;2.67;1.95;;;;;;;28.16;43.03;95753.47;5006521;28;20443;-75
2021/06/27 10:59:56;;;;;;;2.53;2.00;;;;;;;28.23;43.81;95753.47;5013287;28;20429;-75
2021/06/27 11:02:39;;;;;;;3.58;3.22;;;;;;;27.87;38.84;95745.91;5013046;28;20413;-74
2021/06/27 11:05:39;;;;;;;3.45;2.42;;;;;;;28.05;41.67;95750.59;5013106;28;20424;-75
2021/06/27 11:08:05;;;;;;;2.20;1.80;;;;;;;28.40;43.59;95744.03;5011763;28;20467;-75
2021/06/27 11:10:33;;;;;;;2.53;2.10;;;;;;;28.56;41.35;95748.09;5013107;28;20905;-75
2021/06/27 11:13:13;;;;;;;4.63;2.17;;;;;;;28.20;44.33;95751.22;5012812;28;20902;-75
2021/06/27 11:15:58;;;;;;;2.38;2.10;;;;;;;27.87;42.39;95752.03;5012551;28;20412;-75
2021/06/27 11:18:29;;;;;;;2.90;2.05;;;;;;;27.68;44.92;95750.97;5011632;28;20829;-75
2021/06/27 11:21:13;;;;;;;2.35;2.10;;;;;;;27.68;45.03;95743.00;5011629;28;20794;-75
2021/06/27 11:24:04;;;;;;;2.67;2.00;;;;;;;27.05;45.28;95742.44;5015608;28;20407;-75
2021/06/27 11:26:50;;;;;;;3.30;2.42;;;;;;;26.95;41.81;95739.31;5032262;28;20565;-75
2021/06/27 11:29:44;;;;;;;2.20;2.00;;;;;;;27.12;43.69;95742.50;5031192;28;20457;-75
2021/06/27 11:32:44;;;;;;;2.88;2.15;;;;;;;27.73;44.69;95735.22;5032231;28;20457;-75